sensor_id;sensor_type;location;lat;lon;timestamp;pressure;altitude;pressure_sealevel;temperature;humidity
57600;BME280;43426;43.594;24.334;2023-03-04T00:00:17;101348.97;;;4.48;100.00
57600;BME280;43426;43.594;24.334;2023-03-04T00:02:43;101339.50;;;4.55;100.00
57600;BME280;43426;43.594;24.334;2023-03-04T00:05:08;101351.13;;;4.42;100.00
57600;BME280;43426;43.594;24.334;2023-03-04T00:07:33;101347.38;;;4.45;100.00
57600;BME280;43426;43.594;24.334;2023-03-04T00:09:59;101355.16;;;4.48;100.00
57600;BME280;43426;43.594;24.334;2023-03-04T00:12:24;101358.59;;;4.50;100.00
57600;BME280;43426;43.594;24.334;2023-03-04T00:14:50;101358.34;;;4.53;100.00
57600;BME280;43426;43.594;24.334;2023-03-04T00:17:15;101354.47;;;4.57;100.00
57600;BME280;43426;43.594;24.334;2023-03-04T00:19:40;101351.41;;;4.51;100.00
57600;BME280;43426;43.594;24.334;2023-03-04T00:22:05;101350.78;;;4.47;100.00
57600;BME280;43426;43.594;24.334;2023-03-04T00:24:31;101351.41;;;4.51;100.00
57600;BME280;43426;43.594;24.334;2023-03-04T00:26:56;101345.69;;;4.55;100.00
57600;BME280;43426;43.594;24.334;2023-03-04T00:29:21;101339.56;;;4.77;100.00
57600;BME280;43426;43.594;24.334;2023-03-04T00:31:47;101341.72;;;4.61;100.00
57600;BME280;43426;43.594;24.334;2023-03-04T00:34:12;101343.03;;;4.55;100.00
57600;BME280;43426;43.594;24.334;2023-03-04T00:36:37;101333.66;;;4.50;100.00
57600;BME280;43426;43.594;24.334;2023-03-04T00:39:03;101332.47;;;4.54;100.00
57600;BME280;43426;43.594;24.334;2023-03-04T00:41:28;101324.81;;;4.49;100.00
57600;BME280;43426;43.594;24.334;2023-03-04T00:43:53;101322.56;;;4.43;100.00
57600;BME280;43426;43.594;24.334;2023-03-04T00:46:19;101319.31;;;4.39;100.00
57600;BME280;43426;43.594;24.334;2023-03-04T00:48:44;101315.03;;;4.37;100.00
57600;BME280;43426;43.594;24.334;2023-03-04T00:51:09;101315.81;;;4.50;100.00
57600;BME280;43426;43.594;24.334;2023-03-04T00:53:34;101314.25;;;4.59;100.00
57600;BME280;43426;43.594;24.334;2023-03-04T00:56:00;101316.41;;;4.54;100.00
57600;BME280;43426;43.594;24.334;2023-03-04T00:58:25;101315.84;;;4.62;100.00
57600;BME280;43426;43.594;24.334;2023-03-04T01:00:50;101316.81;;;4.60;100.00
57600;BME280;43426;43.594;24.334;2023-03-04T01:03:15;101325.34;;;4.66;100.00
57600;BME280;43426;43.594;24.334;2023-03-04T01:05:41;101324.38;;;4.78;100.00
57600;BME280;43426;43.594;24.334;2023-03-04T01:08:06;101321.72;;;4.78;100.00
57600;BME280;43426;43.594;24.334;2023-03-04T01:10:31;101324.00;;;4.71;100.00
57600;BME280;43426;43.594;24.334;2023-03-04T01:12:57;101327.75;;;4.69;100.00
57600;BME280;43426;43.594;24.334;2023-03-04T01:15:22;101329.91;;;4.52;100.00
57600;BME280;43426;43.594;24.334;2023-03-04T01:17:48;101326.13;;;4.43;100.00
57600;BME280;43426;43.594;24.334;2023-03-04T01:20:13;101334.72;;;4.36;100.00
57600;BME280;43426;43.594;24.334;2023-03-04T01:22:38;101322.22;;;4.36;100.00
57600;BME280;43426;43.594;24.334;2023-03-04T01:25:04;101328.28;;;4.38;100.00
57600;BME280;43426;43.594;24.334;2023-03-04T01:27:29;101326.25;;;4.42;100.00
57600;BME280;43426;43.594;24.334;2023-03-04T01:29:54;101323.81;;;4.39;100.00
57600;BME280;43426;43.594;24.334;2023-03-04T01:32:19;101320.53;;;4.47;100.00
57600;BME280;43426;43.594;24.334;2023-03-04T01:34:45;101322.75;;;4.53;100.00
57600;BME280;43426;43.594;24.334;2023-03-04T01:37:10;101315.44;;;4.43;100.00
57600;BME280;43426;43.594;24.334;2023-03-04T01:39:37;101321.06;;;4.28;100.00
57600;BME280;43426;43.594;24.334;2023-03-04T01:42:02;101316.94;;;4.23;100.00
57600;BME280;43426;43.594;24.334;2023-03-04T01:44:28;101313.31;;;4.24;100.00
57600;BME280;43426;43.594;24.334;2023-03-04T01:46:53;101313.97;;;4.15;100.00
57600;BME280;43426;43.594;24.334;2023-03-04T01:49:20;101314.47;;;4.09;100.00
57600;BME280;43426;43.594;24.334;2023-03-04T01:51:50;101312.78;;;4.19;100.00
57600;BME280;43426;43.594;24.334;2023-03-04T01:54:16;101314.72;;;4.17;100.00
57600;BME280;43426;43.594;24.334;2023-03-04T01:56:43;101306.78;;;4.40;100.00
57600;BME280;43426;43.594;24.334;2023-03-04T02:01:37;101299.59;;;4.29;100.00
57600;BME280;43426;43.594;24.334;2023-03-04T02:04:03;101306.13;;;4.25;100.00
57600;BME280;43426;43.594;24.334;2023-03-04T02:06:29;101299.78;;;4.15;100.00
57600;BME280;43426;43.594;24.334;2023-03-04T02:08:54;101298.66;;;4.06;100.00
57600;BME280;43426;43.594;24.334;2023-03-04T02:11:19;101300.81;;;4.01;100.00
57600;BME280;43426;43.594;24.334;2023-03-04T02:13:45;101303.72;;;3.98;100.00
57600;BME280;43426;43.594;24.334;2023-03-04T02:16:10;101299.06;;;3.88;100.00
57600;BME280;43426;43.594;24.334;2023-03-04T02:18:35;101296.50;;;3.87;100.00
57600;BME280;43426;43.594;24.334;2023-03-04T02:23:31;101294.19;;;3.82;100.00
57600;BME280;43426;43.594;24.334;2023-03-04T02:26:17;101290.69;;;3.93;100.00
57600;BME280;43426;43.594;24.334;2023-03-04T02:28:43;101295.59;;;3.75;100.00
57600;BME280;43426;43.594;24.334;2023-03-04T02:33:53;101289.06;;;3.55;100.00
57600;BME280;43426;43.594;24.334;2023-03-04T02:36:19;101292.81;;;3.52;100.00
57600;BME280;43426;43.594;24.334;2023-03-04T02:38:44;101294.94;;;3.47;100.00
57600;BME280;43426;43.594;24.334;2023-03-04T02:41:11;101296.19;;;3.54;100.00
57600;BME280;43426;43.594;24.334;2023-03-04T02:43:37;101295.50;;;3.39;100.00
57600;BME280;43426;43.594;24.334;2023-03-04T02:46:03;101295.94;;;3.33;100.00
57600;BME280;43426;43.594;24.334;2023-03-04T02:48:28;101293.50;;;3.30;100.00
57600;BME280;43426;43.594;24.334;2023-03-04T02:50:54;101288.19;;;3.17;100.00
57600;BME280;43426;43.594;24.334;2023-03-04T02:53:19;101289.56;;;3.10;100.00
57600;BME280;43426;43.594;24.334;2023-03-04T02:55:45;101295.75;;;3.23;100.00
57600;BME280;43426;43.594;24.334;2023-03-04T02:58:11;101288.50;;;3.26;100.00
57600;BME280;43426;43.594;24.334;2023-03-04T03:00:36;101290.00;;;3.30;100.00
57600;BME280;43426;43.594;24.334;2023-03-04T03:03:02;101287.09;;;3.33;100.00
57600;BME280;43426;43.594;24.334;2023-03-04T03:05:28;101281.31;;;3.39;100.00
57600;BME280;43426;43.594;24.334;2023-03-04T03:07:54;101287.06;;;3.46;100.00
57600;BME280;43426;43.594;24.334;2023-03-04T03:10:19;101293.13;;;3.48;100.00
57600;BME280;43426;43.594;24.334;2023-03-04T03:12:45;101293.97;;;3.48;100.00
57600;BME280;43426;43.594;24.334;2023-03-04T03:15:11;101285.63;;;3.53;100.00
57600;BME280;43426;43.594;24.334;2023-03-04T03:17:36;101289.59;;;3.60;100.00
57600;BME280;43426;43.594;24.334;2023-03-04T03:20:01;101281.22;;;3.65;100.00
57600;BME280;43426;43.594;24.334;2023-03-04T03:22:26;101295.09;;;3.70;100.00
57600;BME280;43426;43.594;24.334;2023-03-04T03:24:52;101287.09;;;3.70;100.00
57600;BME280;43426;43.594;24.334;2023-03-04T03:27:17;101290.94;;;3.66;100.00
57600;BME280;43426;43.594;24.334;2023-03-04T03:29:42;101292.31;;;3.71;100.00
57600;BME280;43426;43.594;24.334;2023-03-04T03:32:08;101285.50;;;3.67;100.00
57600;BME280;43426;43.594;24.334;2023-03-04T03:34:33;101300.09;;;3.74;100.00
57600;BME280;43426;43.594;24.334;2023-03-04T03:36:58;101285.44;;;3.80;100.00
57600;BME280;43426;43.594;24.334;2023-03-04T03:39:23;101292.91;;;3.75;100.00
57600;BME280;43426;43.594;24.334;2023-03-04T03:41:49;101287.41;;;3.65;100.00
57600;BME280;43426;43.594;24.334;2023-03-04T03:44:14;101295.22;;;3.68;100.00
57600;BME280;43426;43.594;24.334;2023-03-04T03:46:39;101290.31;;;3.62;100.00
57600;BME280;43426;43.594;24.334;2023-03-04T03:49:05;101289.19;;;3.78;100.00
57600;BME280;43426;43.594;24.334;2023-03-04T03:51:30;101295.09;;;3.70;100.00
57600;BME280;43426;43.594;24.334;2023-03-04T03:53:55;101292.06;;;3.74;100.00
57600;BME280;43426;43.594;24.334;2023-03-04T03:56:20;101285.19;;;3.83;100.00
57600;BME280;43426;43.594;24.334;2023-03-04T03:58:46;101281.16;;;3.78;100.00
57600;BME280;43426;43.594;24.334;2023-03-04T04:01:11;101281.13;;;3.90;100.00
57600;BME280;43426;43.594;24.334;2023-03-04T04:03:36;101282.81;;;3.91;100.00
57600;BME280;43426;43.594;24.334;2023-03-04T04:06:01;101274.69;;;3.93;100.00
57600;BME280;43426;43.594;24.334;2023-03-04T04:08:27;101284.06;;;3.99;100.00
57600;BME280;43426;43.594;24.334;2023-03-04T04:10:52;101287.44;;;3.89;100.00
57600;BME280;43426;43.594;24.334;2023-03-04T04:13:17;101281.97;;;3.91;100.00
57600;BME280;43426;43.594;24.334;2023-03-04T04:15:42;101278.47;;;3.90;100.00
57600;BME280;43426;43.594;24.334;2023-03-04T04:18:08;101279.84;;;3.83;100.00
57600;BME280;43426;43.594;24.334;2023-03-04T04:20:33;101281.97;;;3.91;100.00
57600;BME280;43426;43.594;24.334;2023-03-04T04:22:59;101281.56;;;3.84;100.00
57600;BME280;43426;43.594;24.334;2023-03-04T04:25:24;101276.22;;;3.84;100.00
57600;BME280;43426;43.594;24.334;2023-03-04T04:27:50;101279.03;;;3.83;100.00
57600;BME280;43426;43.594;24.334;2023-03-04T04:30:15;101277.81;;;3.87;100.00
57600;BME280;43426;43.594;24.334;2023-03-04T04:32:40;101279.84;;;3.83;100.00
57600;BME280;43426;43.594;24.334;2023-03-04T04:35:06;101282.25;;;3.75;100.00
57600;BME280;43426;43.594;24.334;2023-03-04T04:37:31;101276.13;;;3.62;100.00
57600;BME280;43426;43.594;24.334;2023-03-04T04:39:57;101271.56;;;3.51;100.00
57600;BME280;43426;43.594;24.334;2023-03-04T04:42:22;101272.53;;;3.50;100.00
57600;BME280;43426;43.594;24.334;2023-03-04T04:44:47;101270.72;;;3.50;100.00
57600;BME280;43426;43.594;24.334;2023-03-04T04:47:13;101276.91;;;3.51;100.00
57600;BME280;43426;43.594;24.334;2023-03-04T04:49:38;101283.53;;;3.45;100.00
57600;BME280;43426;43.594;24.334;2023-03-04T04:52:03;101279.38;;;3.41;100.00
57600;BME280;43426;43.594;24.334;2023-03-04T04:54:29;101281.09;;;3.42;100.00
57600;BME280;43426;43.594;24.334;2023-03-04T04:56:54;101276.09;;;3.37;100.00
57600;BME280;43426;43.594;24.334;2023-03-04T04:59:20;101274.72;;;3.32;100.00
57600;BME280;43426;43.594;24.334;2023-03-04T05:01:45;101275.38;;;3.22;100.00
57600;BME280;43426;43.594;24.334;2023-03-04T05:04:10;101283.16;;;3.13;100.00
57600;BME280;43426;43.594;24.334;2023-03-04T05:06:36;101279.03;;;2.96;100.00
57600;BME280;43426;43.594;24.334;2023-03-04T05:09:01;101277.34;;;2.95;100.00
57600;BME280;43426;43.594;24.334;2023-03-04T05:11:26;101286.31;;;2.94;100.00
57600;BME280;43426;43.594;24.334;2023-03-04T05:13:52;101294.19;;;2.95;100.00
57600;BME280;43426;43.594;24.334;2023-03-04T05:16:17;101285.00;;;2.86;100.00
57600;BME280;43426;43.594;24.334;2023-03-04T05:18:43;101285.03;;;2.73;100.00
57600;BME280;43426;43.594;24.334;2023-03-04T05:21:08;101292.19;;;2.73;100.00
57600;BME280;43426;43.594;24.334;2023-03-04T05:23:35;101291.00;;;2.77;100.00
57600;BME280;43426;43.594;24.334;2023-03-04T05:26:01;101298.13;;;2.77;100.00
57600;BME280;43426;43.594;24.334;2023-03-04T05:28:26;101299.75;;;2.66;100.00
57600;BME280;43426;43.594;24.334;2023-03-04T05:30:51;101291.22;;;2.87;100.00
57600;BME280;43426;43.594;24.334;2023-03-04T05:33:17;101306.34;;;2.99;100.00
57600;BME280;43426;43.594;24.334;2023-03-04T05:35:43;101310.63;;;3.02;100.00
57600;BME280;43426;43.594;24.334;2023-03-04T05:38:10;101309.94;;;3.24;100.00
57600;BME280;43426;43.594;24.334;2023-03-04T05:40:36;101312.34;;;3.40;100.00
57600;BME280;43426;43.594;24.334;2023-03-04T05:43:02;101310.06;;;3.60;100.00
57600;BME280;43426;43.594;24.334;2023-03-04T05:45:27;101309.94;;;3.61;100.00
57600;BME280;43426;43.594;24.334;2023-03-04T05:47:53;101313.09;;;3.79;100.00
57600;BME280;43426;43.594;24.334;2023-03-04T05:50:19;101314.41;;;3.98;100.00
57600;BME280;43426;43.594;24.334;2023-03-04T05:52:45;101321.56;;;4.21;100.00
57600;BME280;43426;43.594;24.334;2023-03-04T05:55:11;101315.81;;;4.50;100.00
57600;BME280;43426;43.594;24.334;2023-03-04T05:57:36;101325.84;;;4.82;100.00
57600;BME280;43426;43.594;24.334;2023-03-04T06:00:02;101323.06;;;5.06;100.00
57600;BME280;43426;43.594;24.334;2023-03-04T06:02:29;101327.56;;;5.28;100.00
57600;BME280;43426;43.594;24.334;2023-03-04T06:04:54;101338.63;;;5.35;100.00
57600;BME280;43426;43.594;24.334;2023-03-04T06:07:20;101334.84;;;5.49;100.00
57600;BME280;43426;43.594;24.334;2023-03-04T06:09:45;101340.16;;;5.72;100.00
57600;BME280;43426;43.594;24.334;2023-03-04T06:12:11;101350.63;;;5.97;100.00
57600;BME280;43426;43.594;24.334;2023-03-04T06:14:36;101343.16;;;6.12;100.00
57600;BME280;43426;43.594;24.334;2023-03-04T06:17:01;101349.50;;;6.44;100.00
57600;BME280;43426;43.594;24.334;2023-03-04T06:19:27;101351.19;;;6.87;100.00
57600;BME280;43426;43.594;24.334;2023-03-04T06:21:52;101344.78;;;6.99;100.00
57600;BME280;43426;43.594;24.334;2023-03-04T06:24:17;101352.22;;;6.96;100.00
57600;BME280;43426;43.594;24.334;2023-03-04T06:26:43;101347.97;;;6.93;100.00
57600;BME280;43426;43.594;24.334;2023-03-04T06:29:08;101358.47;;;6.96;100.00
57600;BME280;43426;43.594;24.334;2023-03-04T06:31:33;101349.91;;;7.12;100.00
57600;BME280;43426;43.594;24.334;2023-03-04T06:33:59;101350.94;;;7.21;100.00
57600;BME280;43426;43.594;24.334;2023-03-04T06:36:24;101352.09;;;7.59;99.75
57600;BME280;43426;43.594;24.334;2023-03-04T06:38:49;101356.56;;;7.90;98.60
57600;BME280;43426;43.594;24.334;2023-03-04T06:41:15;101357.03;;;8.05;100.00
57600;BME280;43426;43.594;24.334;2023-03-04T06:43:40;101354.63;;;8.41;97.55
57600;BME280;43426;43.594;24.334;2023-03-04T06:46:06;101358.47;;;8.67;94.96
57600;BME280;43426;43.594;24.334;2023-03-04T06:48:32;101371.06;;;8.77;94.53
57600;BME280;43426;43.594;24.334;2023-03-04T06:50:57;101359.44;;;8.76;94.89
57600;BME280;43426;43.594;24.334;2023-03-04T06:53:22;101359.91;;;9.19;92.94
57600;BME280;43426;43.594;24.334;2023-03-04T06:55:48;101367.09;;;9.28;91.14
57600;BME280;43426;43.594;24.334;2023-03-04T06:58:13;101359.78;;;9.48;88.69
57600;BME280;43426;43.594;24.334;2023-03-04T07:00:39;101358.63;;;9.51;89.83
57600;BME280;43426;43.594;24.334;2023-03-04T07:03:04;101349.47;;;9.44;90.25
57600;BME280;43426;43.594;24.334;2023-03-04T07:05:30;101346.56;;;9.55;90.35
57600;BME280;43426;43.594;24.334;2023-03-04T07:07:55;101348.88;;;9.78;87.98
57600;BME280;43426;43.594;24.334;2023-03-04T07:10:20;101338.13;;;10.14;86.53
57600;BME280;43426;43.594;24.334;2023-03-04T07:12:46;101348.00;;;10.23;85.86
57600;BME280;43426;43.594;24.334;2023-03-04T07:15:11;101343.97;;;10.27;82.78
57600;BME280;43426;43.594;24.334;2023-03-04T07:17:37;101338.13;;;10.14;81.79
57600;BME280;43426;43.594;24.334;2023-03-04T07:20:02;101337.34;;;10.03;80.24
57600;BME280;43426;43.594;24.334;2023-03-04T07:22:27;101339.59;;;10.08;79.73
57600;BME280;43426;43.594;24.334;2023-03-04T07:24:53;101336.50;;;10.03;79.36
57600;BME280;43426;43.594;24.334;2023-03-04T07:27:18;101338.22;;;10.22;79.07
57600;BME280;43426;43.594;24.334;2023-03-04T07:29:43;101335.88;;;10.27;78.46
57600;BME280;43426;43.594;24.334;2023-03-04T07:32:09;101341.75;;;10.22;78.89
57600;BME280;43426;43.594;24.334;2023-03-04T07:34:34;101343.38;;;10.33;78.78
57600;BME280;43426;43.594;24.334;2023-03-04T07:36:59;101334.38;;;10.61;78.24
57600;BME280;43426;43.594;24.334;2023-03-04T07:39:25;101336.16;;;10.78;76.34
57600;BME280;43426;43.594;24.334;2023-03-04T07:41:50;101326.03;;;10.72;76.65
57600;BME280;43426;43.594;24.334;2023-03-04T07:44:15;101328.63;;;10.82;77.33
57600;BME280;43426;43.594;24.334;2023-03-04T07:46:41;101325.91;;;10.82;73.95
57600;BME280;43426;43.594;24.334;2023-03-04T07:49:06;101334.22;;;10.88;75.89
57600;BME280;43426;43.594;24.334;2023-03-04T07:51:31;101326.28;;;10.87;75.43
57600;BME280;43426;43.594;24.334;2023-03-04T07:53:59;101318.03;;;11.15;75.53
57600;BME280;43426;43.594;24.334;2023-03-04T07:56:26;101320.72;;;11.15;76.27
57600;BME280;43426;43.594;24.334;2023-03-04T07:58:52;101318.94;;;11.32;73.94
57600;BME280;43426;43.594;24.334;2023-03-04T08:01:38;101320.19;;;11.46;71.94
57600;BME280;43426;43.594;24.334;2023-03-04T08:04:04;101321.19;;;11.45;72.25
57600;BME280;43426;43.594;24.334;2023-03-04T08:06:30;101318.47;;;11.45;73.03
57600;BME280;43426;43.594;24.334;2023-03-04T08:08:59;101316.84;;;11.60;73.03
57600;BME280;43426;43.594;24.334;2023-03-04T08:11:25;101323.38;;;11.84;71.96
57600;BME280;43426;43.594;24.334;2023-03-04T08:13:51;101314.72;;;11.80;69.97
57600;BME280;43426;43.594;24.334;2023-03-04T08:16:18;101311.50;;;11.85;70.94
57600;BME280;43426;43.594;24.334;2023-03-04T08:18:44;101311.44;;;11.60;70.66
57600;BME280;43426;43.594;24.334;2023-03-04T08:21:10;101309.28;;;11.64;71.95
57600;BME280;43426;43.594;24.334;2023-03-04T08:23:36;101306.75;;;11.70;72.74
57600;BME280;43426;43.594;24.334;2023-03-04T08:26:06;101296.38;;;12.08;73.04
57600;BME280;43426;43.594;24.334;2023-03-04T08:28:32;101305.69;;;12.06;70.22
57600;BME280;43426;43.594;24.334;2023-03-04T08:30:57;101300.41;;;12.04;70.17
57600;BME280;43426;43.594;24.334;2023-03-04T08:33:22;101309.00;;;11.91;71.39
57600;BME280;43426;43.594;24.334;2023-03-04T08:35:48;101304.16;;;12.03;70.29
57600;BME280;43426;43.594;24.334;2023-03-04T08:38:13;101307.13;;;11.92;69.29
57600;BME280;43426;43.594;24.334;2023-03-04T08:40:38;101303.38;;;11.76;70.60
57600;BME280;43426;43.594;24.334;2023-03-04T08:43:03;101298.50;;;11.29;69.88
57600;BME280;43426;43.594;24.334;2023-03-04T08:45:29;101292.97;;;11.04;72.45
57600;BME280;43426;43.594;24.334;2023-03-04T08:47:54;101291.69;;;11.17;71.47
57600;BME280;43426;43.594;24.334;2023-03-04T08:50:19;101290.31;;;11.55;74.28
57600;BME280;43426;43.594;24.334;2023-03-04T08:52:45;101292.16;;;12.06;71.14
57600;BME280;43426;43.594;24.334;2023-03-04T08:55:11;101281.84;;;12.34;71.16
57600;BME280;43426;43.594;24.334;2023-03-04T08:57:36;101278.44;;;12.40;67.29
57600;BME280;43426;43.594;24.334;2023-03-04T09:00:01;101277.78;;;12.55;67.80
57600;BME280;43426;43.594;24.334;2023-03-04T09:02:28;101271.84;;;12.68;67.86
57600;BME280;43426;43.594;24.334;2023-03-04T09:04:57;101284.56;;;12.42;67.79
57600;BME280;43426;43.594;24.334;2023-03-04T09:07:26;101273.56;;;12.11;66.34
57600;BME280;43426;43.594;24.334;2023-03-04T09:09:51;101274.50;;;11.69;70.59
57600;BME280;43426;43.594;24.334;2023-03-04T09:12:16;101278.97;;;11.52;69.84
57600;BME280;43426;43.594;24.334;2023-03-04T09:14:42;101272.75;;;11.51;69.87
57600;BME280;43426;43.594;24.334;2023-03-04T09:17:07;101269.94;;;11.78;68.62
57600;BME280;43426;43.594;24.334;2023-03-04T09:19:33;101265.84;;;11.65;67.46
57600;BME280;43426;43.594;24.334;2023-03-04T09:21:58;101260.78;;;11.62;71.06
57600;BME280;43426;43.594;24.334;2023-03-04T09:24:24;101261.72;;;11.45;69.41
57600;BME280;43426;43.594;24.334;2023-03-04T09:26:50;101264.84;;;11.66;69.26
57600;BME280;43426;43.594;24.334;2023-03-04T09:29:16;101255.59;;;11.85;70.41
57600;BME280;43426;43.594;24.334;2023-03-04T09:31:41;101261.84;;;11.86;68.08
57600;BME280;43426;43.594;24.334;2023-03-04T09:34:06;101251.56;;;12.22;68.25
57600;BME280;43426;43.594;24.334;2023-03-04T09:36:32;101247.31;;;12.53;68.60
57600;BME280;43426;43.594;24.334;2023-03-04T09:39:01;101248.00;;;12.63;65.59
57600;BME280;43426;43.594;24.334;2023-03-04T09:43:54;101239.28;;;12.92;65.42
57600;BME280;43426;43.594;24.334;2023-03-04T09:46:54;101236.44;;;12.77;64.13
57600;BME280;43426;43.594;24.334;2023-03-04T09:49:12;101231.75;;;12.63;64.03
57600;BME280;43426;43.594;24.334;2023-03-04T09:54:10;101231.41;;;12.58;64.44
57600;BME280;43426;43.594;24.334;2023-03-04T09:56:39;101221.34;;;12.83;65.32
57600;BME280;43426;43.594;24.334;2023-03-04T10:01:54;101219.72;;;13.14;63.87
57600;BME280;43426;43.594;24.334;2023-03-04T10:07:04;101207.41;;;13.42;61.58
57600;BME280;43426;43.594;24.334;2023-03-04T10:12:02;101206.78;;;13.32;62.08
57600;BME280;43426;43.594;24.334;2023-03-04T10:14:32;101204.53;;;13.44;63.81
57600;BME280;43426;43.594;24.334;2023-03-04T10:17:08;101194.91;;;13.88;63.26
57600;BME280;43426;43.594;24.334;2023-03-04T10:19:56;101188.00;;;14.38;61.49
57600;BME280;43426;43.594;24.334;2023-03-04T10:22:24;101186.25;;;14.60;59.31
57600;BME280;43426;43.594;24.334;2023-03-04T10:24:52;101180.66;;;14.77;60.28
57600;BME280;43426;43.594;24.334;2023-03-04T10:27:18;101182.81;;;14.81;58.25
57600;BME280;43426;43.594;24.334;2023-03-04T10:29:44;101177.91;;;14.62;58.34
57600;BME280;43426;43.594;24.334;2023-03-04T10:32:13;101177.50;;;14.20;58.26
57600;BME280;43426;43.594;24.334;2023-03-04T10:34:40;101164.00;;;14.12;61.12
57600;BME280;43426;43.594;24.334;2023-03-04T10:37:06;101156.91;;;14.26;61.37
57600;BME280;43426;43.594;24.334;2023-03-04T10:42:04;101150.84;;;14.24;60.70
57600;BME280;43426;43.594;24.334;2023-03-04T10:44:31;101153.28;;;14.34;63.19
57600;BME280;43426;43.594;24.334;2023-03-04T10:46:57;101147.50;;;14.81;59.67
57600;BME280;43426;43.594;24.334;2023-03-04T10:49:23;101144.31;;;14.63;59.37
57600;BME280;43426;43.594;24.334;2023-03-04T10:56:53;101139.69;;;14.93;57.87
57600;BME280;43426;43.594;24.334;2023-03-04T10:59:23;101128.19;;;14.91;57.77
57600;BME280;43426;43.594;24.334;2023-03-04T11:01:53;101119.03;;;14.62;59.28
57600;BME280;43426;43.594;24.334;2023-03-04T11:04:19;101118.47;;;14.67;57.26
57600;BME280;43426;43.594;24.334;2023-03-04T11:06:47;101112.09;;;14.90;57.62
57600;BME280;43426;43.594;24.334;2023-03-04T11:09:21;101110.41;;;14.89;57.06
57600;BME280;43426;43.594;24.334;2023-03-04T11:11:46;101105.34;;;14.86;58.36
57600;BME280;43426;43.594;24.334;2023-03-04T11:16:44;101095.91;;;14.67;58.46
57600;BME280;43426;43.594;24.334;2023-03-04T11:19:16;101090.56;;;14.43;58.58
57600;BME280;43426;43.594;24.334;2023-03-04T11:21:42;101084.56;;;14.33;57.24
57600;BME280;43426;43.594;24.334;2023-03-04T11:24:14;101085.03;;;14.52;57.81
57600;BME280;43426;43.594;24.334;2023-03-04T11:26:43;101076.91;;;14.67;56.10
57600;BME280;43426;43.594;24.334;2023-03-04T11:31:39;101078.19;;;14.86;56.55
57600;BME280;43426;43.594;24.334;2023-03-04T11:34:08;101076.44;;;15.21;55.26
57600;BME280;43426;43.594;24.334;2023-03-04T11:39:33;101063.78;;;15.07;56.96
57600;BME280;43426;43.594;24.334;2023-03-04T11:44:31;101049.06;;;15.44;57.62
57600;BME280;43426;43.594;24.334;2023-03-04T11:54:34;101048.91;;;14.51;60.40
57600;BME280;43426;43.594;24.334;2023-03-04T11:57:05;101043.75;;;14.41;58.22
57600;BME280;43426;43.594;24.334;2023-03-04T12:15:24;101032.28;;;13.33;63.29
57600;BME280;43426;43.594;24.334;2023-03-04T12:18:11;101017.78;;;13.26;63.57
57600;BME280;43426;43.594;24.334;2023-03-04T12:20:43;101021.47;;;13.10;64.23
57600;BME280;43426;43.594;24.334;2023-03-04T12:38:28;100993.81;;;14.72;57.62
57600;BME280;43426;43.594;24.334;2023-03-04T12:48:55;100986.31;;;15.46;57.19
57600;BME280;43426;43.594;24.334;2023-03-04T12:51:29;100985.09;;;15.48;56.47
57600;BME280;43426;43.594;24.334;2023-03-04T12:59:02;100962.44;;;14.91;59.11
57600;BME280;43426;43.594;24.334;2023-03-04T13:01:45;100965.25;;;15.26;56.92
57600;BME280;43426;43.594;24.334;2023-03-04T13:09:48;100945.09;;;14.92;58.87
57600;BME280;43426;43.594;24.334;2023-03-04T13:14:40;100944.59;;;15.60;56.30
57600;BME280;43426;43.594;24.334;2023-03-04T13:22:54;100931.88;;;15.39;53.53
57600;BME280;43426;43.594;24.334;2023-03-04T13:40:51;100917.97;;;14.56;52.85
57600;BME280;43426;43.594;24.334;2023-03-04T13:48:42;100911.88;;;13.51;58.84
57600;BME280;43426;43.594;24.334;2023-03-04T13:56:36;100897.09;;;13.38;58.70
57600;BME280;43426;43.594;24.334;2023-03-04T14:01:30;100889.78;;;13.24;62.26
57600;BME280;43426;43.594;24.334;2023-03-04T14:03:58;100889.47;;;13.19;60.74
57600;BME280;43426;43.594;24.334;2023-03-04T14:06:27;100887.03;;;13.09;62.35
57600;BME280;43426;43.594;24.334;2023-03-04T14:08:54;100891.63;;;13.23;60.34
57600;BME280;43426;43.594;24.334;2023-03-04T14:11:25;100886.19;;;13.08;59.47
57600;BME280;43426;43.594;24.334;2023-03-04T14:13:52;100885.44;;;13.15;58.93
57600;BME280;43426;43.594;24.334;2023-03-04T14:16:22;100875.06;;;13.03;59.12
57600;BME280;43426;43.594;24.334;2023-03-04T14:19:00;100877.84;;;12.95;59.76
57600;BME280;43426;43.594;24.334;2023-03-04T14:21:26;100870.09;;;13.07;61.46
57600;BME280;43426;43.594;24.334;2023-03-04T14:26:47;100870.59;;;13.25;59.88
57600;BME280;43426;43.594;24.334;2023-03-04T14:29:27;100870.81;;;13.24;58.70
57600;BME280;43426;43.594;24.334;2023-03-04T14:31:53;100872.50;;;13.85;58.83
57600;BME280;43426;43.594;24.334;2023-03-04T14:34:29;100866.66;;;14.03;55.35
57600;BME280;43426;43.594;24.334;2023-03-04T14:37:02;100862.38;;;13.93;55.73
57600;BME280;43426;43.594;24.334;2023-03-04T14:39:30;100865.38;;;13.99;55.41
57600;BME280;43426;43.594;24.334;2023-03-04T14:41:58;100853.00;;;13.96;56.13
57600;BME280;43426;43.594;24.334;2023-03-04T14:44:34;100851.56;;;14.15;56.16
57600;BME280;43426;43.594;24.334;2023-03-04T14:49:42;100857.13;;;14.50;55.33
57600;BME280;43426;43.594;24.334;2023-03-04T15:06:17;100843.81;;;13.31;55.19
57600;BME280;43426;43.594;24.334;2023-03-04T15:08:43;100839.56;;;13.13;56.69